EDDG

Münster Osnabrück Airport

Airport
ICAO code
EDDG
IATA Code
FMO
Summary
ICAO Region
EUR
ICAO Territory
Location

, Nordrhein-Westfalen

Serving
Munster
Elevation
160 ft
Coordinates
52° 8' 5" N , 7° 41' 5" E
Metar
EDDG 210120Z AUTO 29003KT 270V340 CAVOK 02/00 Q1020 NOSIG

Runways

Designator Length Width Surface Rops
7/25 2170 45 ASP Yes/Yes

Airport map

Aerial View

SKYbrary Partners:

Safety knowledge contributed by: